sensor_id;sensor_type;location;lat;lon;timestamp;P1;durP1;ratioP1;P2;durP2;ratioP2
56824;SDS011;42705;50.326;18.772;2022-08-19T00:01:26;10.82;;;8.73;;
56824;SDS011;42705;50.326;18.772;2022-08-19T00:06:49;12.70;;;9.28;;
56824;SDS011;42705;50.326;18.772;2022-08-19T00:12:12;10.50;;;8.35;;
56824;SDS011;42705;50.326;18.772;2022-08-19T00:22:54;14.25;;;12.35;;
56824;SDS011;42705;50.326;18.772;2022-08-19T00:28:15;11.73;;;9.08;;
56824;SDS011;42705;50.326;18.772;2022-08-19T00:33:36;11.30;;;9.77;;
56824;SDS011;42705;50.326;18.772;2022-08-19T00:38:58;9.88;;;8.88;;
56824;SDS011;42705;50.326;18.772;2022-08-19T00:44:21;11.95;;;9.25;;
56824;SDS011;42705;50.326;18.772;2022-08-19T00:49:47;11.38;;;8.68;;
56824;SDS011;42705;50.326;18.772;2022-08-19T00:55:22;13.13;;;9.38;;
56824;SDS011;42705;50.326;18.772;2022-08-19T01:00:48;10.38;;;9.30;;
56824;SDS011;42705;50.326;18.772;2022-08-19T01:06:09;12.10;;;9.50;;
56824;SDS011;42705;50.326;18.772;2022-08-19T01:11:30;11.27;;;9.07;;
56824;SDS011;42705;50.326;18.772;2022-08-19T01:16:54;13.50;;;9.50;;
56824;SDS011;42705;50.326;18.772;2022-08-19T01:27:49;12.10;;;9.98;;
56824;SDS011;42705;50.326;18.772;2022-08-19T01:33:11;11.65;;;10.28;;
56824;SDS011;42705;50.326;18.772;2022-08-19T01:38:34;11.80;;;9.95;;
56824;SDS011;42705;50.326;18.772;2022-08-19T01:43:58;10.68;;;9.58;;
56824;SDS011;42705;50.326;18.772;2022-08-19T01:49:22;12.75;;;9.90;;
56824;SDS011;42705;50.326;18.772;2022-08-19T01:54:45;12.90;;;10.03;;
56824;SDS011;42705;50.326;18.772;2022-08-19T02:00:07;12.30;;;10.00;;
56824;SDS011;42705;50.326;18.772;2022-08-19T02:05:32;13.48;;;9.78;;
56824;SDS011;42705;50.326;18.772;2022-08-19T02:10:54;12.73;;;9.48;;
56824;SDS011;42705;50.326;18.772;2022-08-19T02:16:17;10.75;;;9.08;;
56824;SDS011;42705;50.326;18.772;2022-08-19T02:21:39;14.13;;;10.03;;
56824;SDS011;42705;50.326;18.772;2022-08-19T02:26:59;13.50;;;10.70;;
56824;SDS011;42705;50.326;18.772;2022-08-19T02:32:20;17.10;;;10.53;;
56824;SDS011;42705;50.326;18.772;2022-08-19T02:37:42;12.53;;;10.43;;
56824;SDS011;42705;50.326;18.772;2022-08-19T02:43:22;12.50;;;10.30;;
56824;SDS011;42705;50.326;18.772;2022-08-19T02:48:44;11.38;;;10.28;;
56824;SDS011;42705;50.326;18.772;2022-08-19T02:54:05;13.55;;;9.85;;
56824;SDS011;42705;50.326;18.772;2022-08-19T02:59:31;10.72;;;9.63;;
56824;SDS011;42705;50.326;18.772;2022-08-19T03:04:53;10.68;;;8.40;;
56824;SDS011;42705;50.326;18.772;2022-08-19T03:10:13;11.43;;;10.33;;
56824;SDS011;42705;50.326;18.772;2022-08-19T03:15:34;13.10;;;10.27;;
56824;SDS011;42705;50.326;18.772;2022-08-19T03:21:00;15.15;;;10.80;;
56824;SDS011;42705;50.326;18.772;2022-08-19T03:26:21;12.03;;;10.70;;
56824;SDS011;42705;50.326;18.772;2022-08-19T03:31:42;11.90;;;10.70;;
56824;SDS011;42705;50.326;18.772;2022-08-19T03:37:06;12.20;;;10.82;;
56824;SDS011;42705;50.326;18.772;2022-08-19T03:42:32;13.85;;;10.60;;
56824;SDS011;42705;50.326;18.772;2022-08-19T03:47:53;10.70;;;9.28;;
56824;SDS011;42705;50.326;18.772;2022-08-19T03:53:14;12.67;;;9.90;;
56824;SDS011;42705;50.326;18.772;2022-08-19T03:58:35;11.70;;;10.50;;
56824;SDS011;42705;50.326;18.772;2022-08-19T04:03:58;12.28;;;10.00;;
56824;SDS011;42705;50.326;18.772;2022-08-19T04:09:21;13.78;;;10.30;;
56824;SDS011;42705;50.326;18.772;2022-08-19T04:14:41;12.67;;;10.73;;
56824;SDS011;42705;50.326;18.772;2022-08-19T04:20:03;15.77;;;10.50;;
56824;SDS011;42705;50.326;18.772;2022-08-19T04:25:24;11.73;;;9.80;;
56824;SDS011;42705;50.326;18.772;2022-08-19T04:30:46;12.27;;;10.67;;
56824;SDS011;42705;50.326;18.772;2022-08-19T04:36:16;12.68;;;8.85;;
56824;SDS011;42705;50.326;18.772;2022-08-19T04:41:43;11.63;;;9.43;;
56824;SDS011;42705;50.326;18.772;2022-08-19T04:47:24;11.45;;;9.65;;
56824;SDS011;42705;50.326;18.772;2022-08-19T04:52:45;13.50;;;9.90;;
56824;SDS011;42705;50.326;18.772;2022-08-19T04:58:06;13.28;;;9.83;;
56824;SDS011;42705;50.326;18.772;2022-08-19T05:03:27;10.60;;;9.33;;
56824;SDS011;42705;50.326;18.772;2022-08-19T05:08:51;17.10;;;9.43;;
56824;SDS011;42705;50.326;18.772;2022-08-19T05:14:12;13.37;;;9.20;;
56824;SDS011;42705;50.326;18.772;2022-08-19T05:19:33;14.68;;;10.15;;
56824;SDS011;42705;50.326;18.772;2022-08-19T05:25:14;13.58;;;10.18;;
56824;SDS011;42705;50.326;18.772;2022-08-19T05:30:40;16.65;;;12.95;;
56824;SDS011;42705;50.326;18.772;2022-08-19T05:36:03;19.70;;;13.08;;
56824;SDS011;42705;50.326;18.772;2022-08-19T05:41:25;13.08;;;10.63;;
56824;SDS011;42705;50.326;18.772;2022-08-19T05:46:47;15.20;;;9.93;;
56824;SDS011;42705;50.326;18.772;2022-08-19T05:52:10;13.97;;;10.23;;
56824;SDS011;42705;50.326;18.772;2022-08-19T05:57:32;12.35;;;9.85;;
56824;SDS011;42705;50.326;18.772;2022-08-19T06:02:53;11.60;;;9.73;;
56824;SDS011;42705;50.326;18.772;2022-08-19T06:08:16;15.32;;;9.75;;
56824;SDS011;42705;50.326;18.772;2022-08-19T06:13:38;13.20;;;9.03;;
56824;SDS011;42705;50.326;18.772;2022-08-19T06:18:59;15.20;;;9.57;;
56824;SDS011;42705;50.326;18.772;2022-08-19T06:24:23;10.13;;;9.05;;
56824;SDS011;42705;50.326;18.772;2022-08-19T06:29:46;14.63;;;9.13;;
56824;SDS011;42705;50.326;18.772;2022-08-19T06:35:07;12.33;;;9.53;;
56824;SDS011;42705;50.326;18.772;2022-08-19T06:40:28;9.85;;;8.45;;
56824;SDS011;42705;50.326;18.772;2022-08-19T06:45:49;12.23;;;8.43;;
56824;SDS011;42705;50.326;18.772;2022-08-19T06:51:17;15.40;;;12.65;;
56824;SDS011;42705;50.326;18.772;2022-08-19T06:56:38;16.23;;;10.32;;
56824;SDS011;42705;50.326;18.772;2022-08-19T07:02:02;12.95;;;8.73;;
56824;SDS011;42705;50.326;18.772;2022-08-19T07:07:26;11.48;;;8.95;;
56824;SDS011;42705;50.326;18.772;2022-08-19T07:12:47;10.00;;;9.00;;
56824;SDS011;42705;50.326;18.772;2022-08-19T07:18:10;12.47;;;9.08;;
56824;SDS011;42705;50.326;18.772;2022-08-19T07:23:31;10.10;;;8.53;;
56824;SDS011;42705;50.326;18.772;2022-08-19T07:28:52;10.68;;;9.13;;
56824;SDS011;42705;50.326;18.772;2022-08-19T07:34:14;10.98;;;8.73;;
56824;SDS011;42705;50.326;18.772;2022-08-19T07:44:58;9.50;;;8.43;;
56824;SDS011;42705;50.326;18.772;2022-08-19T07:50:19;13.18;;;8.68;;
56824;SDS011;42705;50.326;18.772;2022-08-19T07:55:41;13.88;;;8.55;;
56824;SDS011;42705;50.326;18.772;2022-08-19T08:01:03;11.50;;;8.30;;
56824;SDS011;42705;50.326;18.772;2022-08-19T08:06:27;10.53;;;8.65;;
56824;SDS011;42705;50.326;18.772;2022-08-19T08:12:09;13.40;;;9.73;;
56824;SDS011;42705;50.326;18.772;2022-08-19T08:17:36;11.43;;;8.50;;
56824;SDS011;42705;50.326;18.772;2022-08-19T08:22:57;10.70;;;8.08;;
56824;SDS011;42705;50.326;18.772;2022-08-19T08:28:36;10.00;;;7.58;;
56824;SDS011;42705;50.326;18.772;2022-08-19T08:33:57;10.80;;;7.90;;
56824;SDS011;42705;50.326;18.772;2022-08-19T08:44:48;9.28;;;7.50;;
56824;SDS011;42705;50.326;18.772;2022-08-19T08:50:21;12.70;;;7.47;;
56824;SDS011;42705;50.326;18.772;2022-08-19T08:55:53;13.85;;;8.20;;
56824;SDS011;42705;50.326;18.772;2022-08-19T09:01:14;12.43;;;8.20;;
56824;SDS011;42705;50.326;18.772;2022-08-19T09:06:56;10.50;;;7.72;;
56824;SDS011;42705;50.326;18.772;2022-08-19T09:12:31;12.47;;;7.75;;
56824;SDS011;42705;50.326;18.772;2022-08-19T09:18:05;11.05;;;7.70;;
56824;SDS011;42705;50.326;18.772;2022-08-19T09:23:26;10.15;;;7.33;;
56824;SDS011;42705;50.326;18.772;2022-08-19T09:34:12;11.75;;;6.72;;
56824;SDS011;42705;50.326;18.772;2022-08-19T09:44:53;13.17;;;7.43;;
56824;SDS011;42705;50.326;18.772;2022-08-19T09:50:14;11.63;;;8.20;;
56824;SDS011;42705;50.326;18.772;2022-08-19T09:55:35;10.32;;;7.47;;
56824;SDS011;42705;50.326;18.772;2022-08-19T10:00:56;8.95;;;7.70;;
56824;SDS011;42705;50.326;18.772;2022-08-19T10:06:23;10.60;;;8.18;;
56824;SDS011;42705;50.326;18.772;2022-08-19T10:11:50;11.90;;;7.90;;
56824;SDS011;42705;50.326;18.772;2022-08-19T10:17:11;9.75;;;8.10;;
56824;SDS011;42705;50.326;18.772;2022-08-19T10:22:32;11.63;;;7.97;;
56824;SDS011;42705;50.326;18.772;2022-08-19T10:27:55;10.28;;;7.72;;
56824;SDS011;42705;50.326;18.772;2022-08-19T10:33:16;9.83;;;7.40;;
56824;SDS011;42705;50.326;18.772;2022-08-19T10:38:37;8.23;;;7.47;;
56824;SDS011;42705;50.326;18.772;2022-08-19T10:43:59;9.65;;;7.00;;
56824;SDS011;42705;50.326;18.772;2022-08-19T10:49:27;7.62;;;6.67;;
56824;SDS011;42705;50.326;18.772;2022-08-19T10:54:49;10.87;;;6.50;;
56824;SDS011;42705;50.326;18.772;2022-08-19T11:00:29;9.20;;;6.33;;
56824;SDS011;42705;50.326;18.772;2022-08-19T11:06:00;11.20;;;8.38;;
56824;SDS011;42705;50.326;18.772;2022-08-19T11:11:26;9.45;;;5.92;;
56824;SDS011;42705;50.326;18.772;2022-08-19T11:16:49;9.38;;;6.00;;
56824;SDS011;42705;50.326;18.772;2022-08-19T11:22:12;7.78;;;5.65;;
56824;SDS011;42705;50.326;18.772;2022-08-19T11:27:33;8.20;;;6.83;;
56824;SDS011;42705;50.326;18.772;2022-08-19T11:32:54;10.82;;;7.00;;
56824;SDS011;42705;50.326;18.772;2022-08-19T11:38:14;7.67;;;5.77;;
56824;SDS011;42705;50.326;18.772;2022-08-19T11:43:35;8.30;;;5.58;;
56824;SDS011;42705;50.326;18.772;2022-08-19T11:48:57;10.03;;;6.03;;
56824;SDS011;42705;50.326;18.772;2022-08-19T11:54:20;8.63;;;5.78;;
56824;SDS011;42705;50.326;18.772;2022-08-19T11:59:41;9.50;;;5.72;;
56824;SDS011;42705;50.326;18.772;2022-08-19T12:05:02;8.78;;;5.62;;
56824;SDS011;42705;50.326;18.772;2022-08-19T12:10:24;9.30;;;5.70;;
56824;SDS011;42705;50.326;18.772;2022-08-19T12:15:46;13.20;;;6.83;;
56824;SDS011;42705;50.326;18.772;2022-08-19T12:21:08;11.70;;;5.95;;
56824;SDS011;42705;50.326;18.772;2022-08-19T12:26:30;12.53;;;7.60;;
56824;SDS011;42705;50.326;18.772;2022-08-19T12:31:51;11.20;;;6.42;;
56824;SDS011;42705;50.326;18.772;2022-08-19T12:37:12;7.15;;;5.28;;
56824;SDS011;42705;50.326;18.772;2022-08-19T12:42:33;8.38;;;5.70;;
56824;SDS011;42705;50.326;18.772;2022-08-19T12:47:55;8.85;;;5.58;;
56824;SDS011;42705;50.326;18.772;2022-08-19T12:53:15;7.87;;;5.22;;
56824;SDS011;42705;50.326;18.772;2022-08-19T12:58:36;9.77;;;5.30;;
56824;SDS011;42705;50.326;18.772;2022-08-19T13:03:57;8.40;;;4.90;;
56824;SDS011;42705;50.326;18.772;2022-08-19T13:09:19;9.50;;;4.90;;
56824;SDS011;42705;50.326;18.772;2022-08-19T13:14:40;8.90;;;4.80;;
56824;SDS011;42705;50.326;18.772;2022-08-19T13:20:02;8.05;;;4.70;;
56824;SDS011;42705;50.326;18.772;2022-08-19T13:25:26;9.08;;;4.87;;
56824;SDS011;42705;50.326;18.772;2022-08-19T13:30:47;6.90;;;5.05;;
56824;SDS011;42705;50.326;18.772;2022-08-19T13:36:26;10.30;;;4.67;;
56824;SDS011;42705;50.326;18.772;2022-08-19T13:41:47;10.32;;;4.85;;
56824;SDS011;42705;50.326;18.772;2022-08-19T13:47:08;5.50;;;4.10;;
56824;SDS011;42705;50.326;18.772;2022-08-19T13:52:31;5.92;;;4.30;;
56824;SDS011;42705;50.326;18.772;2022-08-19T13:57:53;4.83;;;3.80;;
56824;SDS011;42705;50.326;18.772;2022-08-19T14:03:16;8.35;;;4.78;;
56824;SDS011;42705;50.326;18.772;2022-08-19T14:08:37;6.28;;;4.03;;
56824;SDS011;42705;50.326;18.772;2022-08-19T14:14:00;9.43;;;4.30;;
56824;SDS011;42705;50.326;18.772;2022-08-19T14:19:21;7.95;;;3.92;;
56824;SDS011;42705;50.326;18.772;2022-08-19T14:24:42;9.13;;;4.10;;
56824;SDS011;42705;50.326;18.772;2022-08-19T14:30:03;8.85;;;4.08;;
56824;SDS011;42705;50.326;18.772;2022-08-19T14:35:27;8.30;;;4.10;;
56824;SDS011;42705;50.326;18.772;2022-08-19T14:40:53;11.33;;;3.60;;
56824;SDS011;42705;50.326;18.772;2022-08-19T14:46:15;7.87;;;3.67;;
56824;SDS011;42705;50.326;18.772;2022-08-19T14:57:03;9.45;;;3.90;;
56824;SDS011;42705;50.326;18.772;2022-08-19T15:02:25;10.63;;;4.42;;
56824;SDS011;42705;50.326;18.772;2022-08-19T15:07:46;10.35;;;4.50;;
56824;SDS011;42705;50.326;18.772;2022-08-19T15:13:07;10.68;;;4.45;;
56824;SDS011;42705;50.326;18.772;2022-08-19T15:18:28;12.37;;;6.62;;
56824;SDS011;42705;50.326;18.772;2022-08-19T15:23:49;10.05;;;6.05;;
56824;SDS011;42705;50.326;18.772;2022-08-19T15:29:12;13.18;;;7.35;;
56824;SDS011;42705;50.326;18.772;2022-08-19T15:34:34;10.13;;;4.95;;
56824;SDS011;42705;50.326;18.772;2022-08-19T15:39:55;11.43;;;4.80;;
56824;SDS011;42705;50.326;18.772;2022-08-19T15:45:17;11.40;;;5.08;;
56824;SDS011;42705;50.326;18.772;2022-08-19T15:50:39;10.18;;;4.62;;
56824;SDS011;42705;50.326;18.772;2022-08-19T15:56:02;10.53;;;4.75;;
56824;SDS011;42705;50.326;18.772;2022-08-19T16:01:23;6.85;;;4.67;;
56824;SDS011;42705;50.326;18.772;2022-08-19T16:07:03;11.15;;;5.25;;
56824;SDS011;42705;50.326;18.772;2022-08-19T16:12:24;12.33;;;5.30;;
56824;SDS011;42705;50.326;18.772;2022-08-19T16:17:47;10.05;;;5.45;;
56824;SDS011;42705;50.326;18.772;2022-08-19T16:23:08;11.60;;;5.67;;
56824;SDS011;42705;50.326;18.772;2022-08-19T16:28:29;13.18;;;5.60;;
56824;SDS011;42705;50.326;18.772;2022-08-19T16:33:50;14.15;;;7.15;;
56824;SDS011;42705;50.326;18.772;2022-08-19T16:39:12;9.60;;;7.08;;
56824;SDS011;42705;50.326;18.772;2022-08-19T16:44:35;11.43;;;7.33;;
56824;SDS011;42705;50.326;18.772;2022-08-19T16:50:02;11.28;;;7.65;;
56824;SDS011;42705;50.326;18.772;2022-08-19T16:55:26;10.53;;;7.33;;
56824;SDS011;42705;50.326;18.772;2022-08-19T17:00:47;11.65;;;7.70;;
56824;SDS011;42705;50.326;18.772;2022-08-19T17:06:10;12.37;;;8.20;;
56824;SDS011;42705;50.326;18.772;2022-08-19T17:11:35;10.90;;;7.37;;
56824;SDS011;42705;50.326;18.772;2022-08-19T17:16:56;10.55;;;7.42;;
56824;SDS011;42705;50.326;18.772;2022-08-19T17:27:38;13.15;;;7.40;;
56824;SDS011;42705;50.326;18.772;2022-08-19T17:32:58;10.05;;;5.83;;
56824;SDS011;42705;50.326;18.772;2022-08-19T17:38:20;11.55;;;4.80;;
56824;SDS011;42705;50.326;18.772;2022-08-19T17:43:42;5.33;;;2.98;;
56824;SDS011;42705;50.326;18.772;2022-08-19T17:56:16;9.23;;;3.00;;
56824;SDS011;42705;50.326;18.772;2022-08-19T18:06:58;12.07;;;3.67;;
56824;SDS011;42705;50.326;18.772;2022-08-19T18:12:22;8.15;;;3.35;;
56824;SDS011;42705;50.326;18.772;2022-08-19T18:17:49;9.65;;;3.83;;
56824;SDS011;42705;50.326;18.772;2022-08-19T18:23:19;11.37;;;5.00;;
56824;SDS011;42705;50.326;18.772;2022-08-19T18:28:40;8.07;;;4.10;;
56824;SDS011;42705;50.326;18.772;2022-08-19T18:34:01;12.27;;;5.23;;
56824;SDS011;42705;50.326;18.772;2022-08-19T18:39:22;10.60;;;4.93;;
56824;SDS011;42705;50.326;18.772;2022-08-19T18:45:02;11.03;;;4.22;;
56824;SDS011;42705;50.326;18.772;2022-08-19T18:50:43;10.43;;;4.87;;
56824;SDS011;42705;50.326;18.772;2022-08-19T18:56:04;8.70;;;4.57;;
56824;SDS011;42705;50.326;18.772;2022-08-19T19:01:30;10.43;;;4.45;;
56824;SDS011;42705;50.326;18.772;2022-08-19T19:06:58;8.83;;;4.40;;
56824;SDS011;42705;50.326;18.772;2022-08-19T19:12:19;7.77;;;5.10;;
56824;SDS011;42705;50.326;18.772;2022-08-19T19:17:41;10.53;;;4.50;;
56824;SDS011;42705;50.326;18.772;2022-08-19T19:23:02;8.97;;;4.43;;
56824;SDS011;42705;50.326;18.772;2022-08-19T19:28:23;9.65;;;5.53;;
56824;SDS011;42705;50.326;18.772;2022-08-19T19:33:48;9.55;;;4.10;;
56824;SDS011;42705;50.326;18.772;2022-08-19T19:44:32;9.25;;;5.90;;
56824;SDS011;42705;50.326;18.772;2022-08-19T19:49:55;9.98;;;5.33;;
56824;SDS011;42705;50.326;18.772;2022-08-19T19:55:16;12.03;;;5.37;;
56824;SDS011;42705;50.326;18.772;2022-08-19T20:00:37;13.77;;;5.87;;
56824;SDS011;42705;50.326;18.772;2022-08-19T20:05:59;9.05;;;5.05;;
56824;SDS011;42705;50.326;18.772;2022-08-19T20:16:52;10.90;;;5.40;;
56824;SDS011;42705;50.326;18.772;2022-08-19T20:22:15;12.82;;;5.70;;
56824;SDS011;42705;50.326;18.772;2022-08-19T20:27:36;10.27;;;4.80;;
56824;SDS011;42705;50.326;18.772;2022-08-19T20:32:59;14.18;;;5.95;;
56824;SDS011;42705;50.326;18.772;2022-08-19T20:38:21;18.98;;;8.35;;
56824;SDS011;42705;50.326;18.772;2022-08-19T20:43:42;10.28;;;5.72;;
56824;SDS011;42705;50.326;18.772;2022-08-19T20:49:03;10.93;;;5.60;;
56824;SDS011;42705;50.326;18.772;2022-08-19T20:54:24;10.83;;;5.50;;
56824;SDS011;42705;50.326;18.772;2022-08-19T20:59:48;12.37;;;5.22;;
56824;SDS011;42705;50.326;18.772;2022-08-19T21:05:09;10.67;;;5.90;;
56824;SDS011;42705;50.326;18.772;2022-08-19T21:10:30;9.23;;;5.37;;
56824;SDS011;42705;50.326;18.772;2022-08-19T21:15:53;10.43;;;6.00;;
56824;SDS011;42705;50.326;18.772;2022-08-19T21:21:15;12.55;;;5.62;;
56824;SDS011;42705;50.326;18.772;2022-08-19T21:26:36;8.83;;;5.87;;
56824;SDS011;42705;50.326;18.772;2022-08-19T21:31:58;12.97;;;5.63;;
56824;SDS011;42705;50.326;18.772;2022-08-19T21:37:19;12.82;;;6.95;;
56824;SDS011;42705;50.326;18.772;2022-08-19T21:42:41;13.50;;;7.20;;
56824;SDS011;42705;50.326;18.772;2022-08-19T21:48:03;12.60;;;6.67;;
56824;SDS011;42705;50.326;18.772;2022-08-19T21:53:24;11.47;;;7.40;;
56824;SDS011;42705;50.326;18.772;2022-08-19T21:58:45;14.00;;;9.03;;
56824;SDS011;42705;50.326;18.772;2022-08-19T22:04:07;16.63;;;9.07;;
56824;SDS011;42705;50.326;18.772;2022-08-19T22:09:32;15.18;;;8.00;;
56824;SDS011;42705;50.326;18.772;2022-08-19T22:14:53;13.77;;;7.67;;
56824;SDS011;42705;50.326;18.772;2022-08-19T22:20:17;16.37;;;8.45;;
56824;SDS011;42705;50.326;18.772;2022-08-19T22:25:43;18.12;;;8.28;;
56824;SDS011;42705;50.326;18.772;2022-08-19T22:31:06;12.80;;;7.25;;
56824;SDS011;42705;50.326;18.772;2022-08-19T22:41:50;13.25;;;7.10;;
56824;SDS011;42705;50.326;18.772;2022-08-19T22:47:12;12.18;;;7.28;;
56824;SDS011;42705;50.326;18.772;2022-08-19T22:52:33;13.93;;;7.10;;
56824;SDS011;42705;50.326;18.772;2022-08-19T22:57:56;13.58;;;8.08;;
56824;SDS011;42705;50.326;18.772;2022-08-19T23:03:18;13.13;;;8.00;;
56824;SDS011;42705;50.326;18.772;2022-08-19T23:08:42;12.53;;;7.37;;
56824;SDS011;42705;50.326;18.772;2022-08-19T23:14:03;12.35;;;7.05;;
56824;SDS011;42705;50.326;18.772;2022-08-19T23:19:25;11.18;;;7.33;;
56824;SDS011;42705;50.326;18.772;2022-08-19T23:24:46;11.40;;;7.00;;
56824;SDS011;42705;50.326;18.772;2022-08-19T23:30:07;11.90;;;7.37;;
56824;SDS011;42705;50.326;18.772;2022-08-19T23:35:45;12.58;;;7.20;;
56824;SDS011;42705;50.326;18.772;2022-08-19T23:41:07;10.93;;;7.75;;
56824;SDS011;42705;50.326;18.772;2022-08-19T23:46:30;16.05;;;8.18;;
56824;SDS011;42705;50.326;18.772;2022-08-19T23:51:52;14.20;;;8.80;;
56824;SDS011;42705;50.326;18.772;2022-08-19T23:57:14;14.10;;;8.60;;
